Time;durP1;ratioP1;P1;durP2;ratioP2;P2;SDS_P1;SDS_P2;PMS_P1;PMS_P2;Temp;Humidity;BMP_temperature;BMP_pressure;BME280_temperature;BME280_humidity;BME280_pressure;Samples;Min_cycle;Max_cycle;Signal;HPM_P1;HPM_P2
2023/01/14 00:00:13;;;;;;;16.05;5.35;;;;;;;6.07;100.00;100997.44;5012648;28;20442;-74
2023/01/14 00:02:39;;;;;;;17.75;5.65;;;;;;;6.11;100.00;100991.72;5012852;28;20022;-76
2023/01/14 00:05:04;;;;;;;17.17;4.90;;;;;;;5.96;100.00;100973.66;5012267;28;20030;-73
2023/01/14 00:07:30;;;;;;;11.38;4.30;;;;;;;6.08;100.00;100991.53;5012069;28;20061;-74
2023/01/14 00:09:55;;;;;;;7.20;4.18;;;;;;;6.01;100.00;100973.09;5012691;28;20029;-74
2023/01/14 00:12:21;;;;;;;6.50;3.38;;;;;;;6.19;100.00;100996.44;5012633;28;20025;-77
2023/01/14 00:14:46;;;;;;;6.97;3.60;;;;;;;6.13;100.00;100987.59;5012430;28;20037;-78
2023/01/14 00:17:12;;;;;;;9.13;4.18;;;;;;;6.24;100.00;100992.50;5012719;28;20038;-74
2023/01/14 00:19:38;;;;;;;11.43;4.95;;;;;;;6.26;100.00;100993.50;5011895;28;20036;-75
2023/01/14 00:22:04;;;;;;;11.30;4.40;;;;;;;6.18;100.00;100989.53;5012531;28;20045;-75
2023/01/14 00:24:29;;;;;;;7.75;4.53;;;;;;;5.91;100.00;100969.03;5003568;28;20034;-75
2023/01/14 00:26:56;;;;;;;16.83;5.28;;;;;;;6.04;100.00;100986.09;4992467;28;20026;-73
2023/01/14 00:29:34;;;;;;;7.07;4.63;;;;;;;6.04;100.00;100986.97;5001573;28;20508;-73
2023/01/14 00:32:03;;;;;;;6.45;4.40;;;;;;;5.97;100.00;100985.69;5012235;28;20014;-73
2023/01/14 00:34:30;;;;;;;6.75;4.10;;;;;;;5.59;100.00;100922.63;5012099;28;20503;-76
2023/01/14 00:36:57;;;;;;;8.60;4.50;;;;;;;5.96;100.00;100991.59;5012196;28;20381;-73
2023/01/14 00:39:23;;;;;;;8.80;4.53;;;;;;;5.96;100.00;100988.16;5011151;28;20034;-77
2023/01/14 00:41:49;;;;;;;8.48;3.97;;;;;;;5.99;100.00;100988.38;5012181;28;20105;-75
2023/01/14 00:44:16;;;;;;;11.18;4.28;;;;;;;5.95;100.00;100977.00;5012421;28;20042;-75
2023/01/14 00:46:41;;;;;;;11.60;4.45;;;;;;;6.04;100.00;100988.66;5011825;28;20065;-75
2023/01/14 00:49:13;;;;;;;12.27;4.15;;;;;;;5.74;100.00;100929.53;5011831;28;20041;-76
2023/01/14 00:51:39;;;;;;;10.40;4.78;;;;;;;6.09;100.00;100982.16;5011930;28;20022;-76
2023/01/14 00:54:04;;;;;;;9.13;4.38;;;;;;;6.06;100.00;100981.97;5011973;28;20096;-75
2023/01/14 00:56:30;;;;;;;10.55;4.47;;;;;;;6.11;100.00;100985.72;5012055;28;20033;-78
2023/01/14 00:58:56;;;;;;;8.63;4.10;;;;;;;6.14;100.00;100996.16;5011655;28;20112;-76
2023/01/14 01:01:22;;;;;;;8.50;3.85;;;;;;;6.14;100.00;100981.66;5011344;28;20034;-74
2023/01/14 01:03:50;;;;;;;7.55;3.90;;;;;;;6.13;100.00;100991.81;5012043;28;20116;-75
2023/01/14 01:06:17;;;;;;;8.38;4.22;;;;;;;5.55;100.00;100905.28;5011343;28;20034;-76
2023/01/14 01:08:43;;;;;;;8.98;4.95;;;;;;;5.89;100.00;100991.97;5011526;28;20025;-74
2023/01/14 01:11:09;;;;;;;8.32;4.25;;;;;;;5.90;100.00;100980.94;5011200;28;20022;-76
2023/01/14 01:13:36;;;;;;;10.30;4.68;;;;;;;5.93;100.00;100982.81;5010429;28;20115;-75
2023/01/14 01:16:08;;;;;;;12.43;5.60;;;;;;;5.90;100.00;100993.75;5010159;28;20384;-74
2023/01/14 01:18:34;;;;;;;11.38;4.18;;;;;;;5.76;100.00;100990.31;5011577;28;20036;-75
2023/01/14 01:21:05;;;;;;;9.90;4.78;;;;;;;5.71;100.00;100980.53;5011847;28;20411;-73
2023/01/14 01:23:31;;;;;;;6.32;4.25;;;;;;;5.79;100.00;100984.50;5011192;28;20061;-75
2023/01/14 01:26:04;;;;;;;9.20;4.55;;;;;;;5.58;100.00;100933.69;5011629;28;20033;-76
2023/01/14 01:28:30;;;;;;;8.05;4.70;;;;;;;5.32;100.00;100873.97;5010822;28;20087;-75
2023/01/14 01:31:03;;;;;;;7.10;4.35;;;;;;;5.89;100.00;100974.03;5011507;28;20022;-74
2023/01/14 01:33:28;;;;;;;8.18;4.63;;;;;;;5.98;100.00;100976.31;5011349;28;20037;-75
2023/01/14 01:36:07;;;;;;;11.90;4.53;;;;;;;6.03;100.00;100977.53;5002779;28;20022;-74
2023/01/14 01:38:33;;;;;;;9.63;5.25;;;;;;;6.07;100.00;100982.06;5004600;28;20080;-74
2023/01/14 01:40:59;;;;;;;7.07;4.32;;;;;;;6.11;100.00;100978.03;4993769;28;20498;-74
2023/01/14 01:43:27;;;;;;;6.90;4.22;;;;;;;6.13;100.00;100987.59;4996480;28;20040;-76
2023/01/14 01:45:53;;;;;;;8.88;4.35;;;;;;;5.99;100.00;100948.28;4990940;28;20073;-75
2023/01/14 01:48:40;;;;;;;7.72;4.97;;;;;;;6.16;100.00;100979.19;5004596;28;20033;-78
2023/01/14 01:51:13;;;;;;;5.85;3.92;;;;;;;6.04;100.00;100945.09;5011348;28;20030;-80
2023/01/14 01:53:42;;;;;;;7.63;4.80;;;;;;;6.17;100.00;100972.38;5009891;28;20053;-80
2023/01/14 01:56:11;;;;;;;9.75;4.97;;;;;;;5.97;100.00;100947.25;5010999;28;20026;-79
2023/01/14 01:58:37;;;;;;;9.73;5.50;;;;;;;6.05;100.00;100958.00;5011051;28;20070;-79
2023/01/14 02:01:03;;;;;;;11.02;6.18;;;;;;;6.08;100.00;100967.56;5011001;28;20057;-79
2023/01/14 02:03:38;;;;;;;12.35;7.80;;;;;;;6.02;100.00;100962.03;5011121;28;20030;-80
2023/01/14 02:06:04;;;;;;;10.07;6.65;;;;;;;5.99;100.00;100958.53;5010947;28;20637;-78
2023/01/14 02:08:31;;;;;;;13.65;7.72;;;;;;;5.99;100.00;100953.41;5010852;28;20116;-78
2023/01/14 02:11:18;;;;;;;10.65;7.18;;;;;;;6.02;100.00;100956.91;5011076;28;20109;-78
2023/01/14 02:14:11;;;;;;;12.68;7.40;;;;;;;5.93;100.00;100957.19;5009513;28;20092;-79
2023/01/14 02:17:09;;;;;;;13.57;7.47;;;;;;;5.78;100.00;100934.03;5010962;28;20443;-78
2023/01/14 02:19:58;;;;;;;11.77;7.70;;;;;;;5.76;100.00;100946.75;4969682;28;20038;-79
2023/01/14 02:22:32;;;;;;;14.95;8.45;;;;;;;5.80;100.00;100950.41;4969204;28;20038;-82
2023/01/14 02:25:18;;;;;;;18.30;8.15;;;;;;;5.84;100.00;100949.81;4969422;28;20074;-82
2023/01/14 02:27:52;;;;;;;15.25;7.80;;;;;;;5.78;100.00;100940.06;4966426;28;20046;-82
2023/01/14 02:30:32;;;;;;;16.27;7.65;;;;;;;5.83;100.00;100942.91;4950836;28;20043;-82
2023/01/14 02:33:14;;;;;;;16.30;8.07;;;;;;;5.79;100.00;100926.44;4954071;29;20035;-82
2023/01/14 02:35:46;;;;;;;23.27;8.30;;;;;;;5.85;100.00;100946.47;4953872;29;20043;-81
2023/01/14 02:38:23;;;;;;;24.40;8.63;;;;;;;5.81;100.00;100939.38;4953821;29;20401;-82
2023/01/14 02:41:12;;;;;;;27.77;9.77;;;;;;;5.83;100.00;100931.00;4934430;29;20047;-82
2023/01/14 02:46:33;;;;;;;15.30;6.40;;;;;;;5.69;100.00;100936.91;4973181;28;20065;-82
2023/01/14 02:49:01;;;;;;;13.60;7.15;;;;;;;5.56;100.00;100929.22;4956780;28;20500;-80
2023/01/14 02:51:27;;;;;;;12.95;7.60;;;;;;;5.46;100.00;100913.28;4972912;28;20051;-82
2023/01/14 02:53:53;;;;;;;15.43;7.80;;;;;;;5.57;100.00;100931.91;4972957;28;20112;-81
2023/01/14 02:56:18;;;;;;;10.68;6.38;;;;;;;5.27;100.00;100875.34;5010373;28;20045;-82
2023/01/14 02:59:11;;;;;;;12.63;6.95;;;;;;;5.62;100.00;100925.38;5011810;28;20037;-81
2023/01/14 03:01:45;;;;;;;16.27;7.85;;;;;;;5.75;100.00;100941.56;5011594;28;20064;-82
2023/01/14 03:04:16;;;;;;;20.02;8.32;;;;;;;5.68;100.00;100937.69;5011699;28;20463;-81
2023/01/14 03:07:02;;;;;;;17.02;8.70;;;;;;;5.51;100.00;100942.63;4995481;28;20125;-81
2023/01/14 03:09:32;;;;;;;18.23;10.13;;;;;;;5.61;100.00;100938.09;5011719;28;20038;-81
2023/01/14 03:12:26;;;;;;;16.13;8.88;;;;;;;5.54;100.00;100936.81;5002075;28;20413;-86
2023/01/14 03:14:58;;;;;;;18.58;9.30;;;;;;;5.53;100.00;100918.78;4994687;28;20036;-81
2023/01/14 03:17:34;;;;;;;14.50;9.20;;;;;;;5.58;100.00;100922.53;4994442;28;20066;-81
2023/01/14 03:20:10;;;;;;;15.20;8.73;;;;;;;5.54;100.00;100918.88;4994627;28;20033;-81
2023/01/14 03:22:37;;;;;;;19.98;9.25;;;;;;;5.53;100.00;100911.97;4994556;28;20038;-82
2023/01/14 03:27:41;;;;;;;23.98;10.07;;;;;;;5.61;100.00;100917.63;5132324;23;20061;-82
2023/01/14 03:30:15;;;;;;;19.02;9.68;;;;;;;4.73;100.00;100764.38;5032624;28;20029;-82
2023/01/14 03:32:53;;;;;;;22.88;10.73;;;;;;;5.27;100.00;100854.88;5033809;28;20083;-82
2023/01/14 03:35:23;;;;;;;21.90;9.50;;;;;;;5.74;100.00;100925.28;5033499;28;20030;-82
2023/01/14 03:38:03;;;;;;;20.33;9.98;;;;;;;5.75;100.00;100929.63;5032604;28;20032;-82
2023/01/14 03:40:32;;;;;;;17.73;9.43;;;;;;;5.76;100.00;100928.81;5032521;28;20068;-82
2023/01/14 03:43:17;;;;;;;18.98;10.13;;;;;;;5.65;100.00;100924.69;5029852;28;20491;-81
2023/01/14 03:45:45;;;;;;;23.85;9.50;;;;;;;5.10;100.00;100825.63;5013773;28;20033;-81
2023/01/14 03:48:11;;;;;;;23.63;11.07;;;;;;;5.66;100.00;100919.66;5013700;28;20053;-81
2023/01/14 03:50:50;;;;;;;19.27;8.77;;;;;;;5.27;100.00;100859.09;5013825;28;20066;-81
2023/01/14 03:53:33;;;;;;;22.67;9.77;;;;;;;5.70;100.00;100928.44;5013854;28;20049;-81
2023/01/14 03:56:17;;;;;;;17.70;10.00;;;;;;;5.70;100.00;100915.63;5013632;28;20034;-81
2023/01/14 03:58:50;;;;;;;22.95;10.20;;;;;;;5.62;100.00;100919.38;5012429;28;20032;-81
2023/01/14 04:01:26;;;;;;;23.95;9.98;;;;;;;5.62;100.00;100917.72;5013571;28;20029;-80
2023/01/14 04:03:53;;;;;;;25.33;10.43;;;;;;;5.65;100.00;100922.13;5028385;28;20030;-81
2023/01/14 04:06:18;;;;;;;27.67;10.50;;;;;;;5.22;100.00;100860.47;5012067;28;20029;-81
2023/01/14 04:08:44;;;;;;;15.98;10.48;;;;;;;5.36;100.00;100900.66;5011838;28;20022;-81
2023/01/14 04:11:10;;;;;;;21.45;11.05;;;;;;;5.21;100.00;100885.19;5013358;28;20034;-81
2023/01/14 04:16:19;;;;;;;19.67;11.65;;;;;;;5.28;100.00;100906.94;5013405;28;20037;-81
2023/01/14 04:18:45;;;;;;;19.42;11.52;;;;;;;4.83;100.00;100820.47;5011830;28;20420;-81
2023/01/14 04:21:10;;;;;;;16.52;11.60;;;;;;;5.44;100.00;100909.72;5004010;28;20034;-80
2023/01/14 04:23:35;;;;;;;16.25;10.70;;;;;;;5.43;100.00;100907.06;4992410;28;20027;-80
2023/01/14 04:26:01;;;;;;;18.02;10.73;;;;;;;5.47;100.00;100909.03;4993332;28;20128;-80
2023/01/14 04:28:27;;;;;;;17.42;11.38;;;;;;;5.52;100.00;100920.47;4993355;28;20101;-81
2023/01/14 04:30:53;;;;;;;16.98;11.15;;;;;;;5.12;100.00;100851.31;4992622;28;20034;-81
2023/01/14 04:33:20;;;;;;;18.13;11.75;;;;;;;5.21;100.00;100872.41;4991854;28;20030;-81
2023/01/14 04:35:48;;;;;;;28.25;12.73;;;;;;;5.49;100.00;100928.81;5007363;28;20030;-79
2023/01/14 04:38:14;;;;;;;26.20;13.30;;;;;;;5.44;100.00;100914.84;5012559;28;20029;-80
2023/01/14 04:40:39;;;;;;;33.60;13.48;;;;;;;5.31;100.00;100895.25;5009869;28;20470;-79
2023/01/14 04:43:04;;;;;;;23.92;10.63;;;;;;;5.54;100.00;100931.69;5002036;28;20112;-78
2023/01/14 04:45:30;;;;;;;46.13;13.15;;;;;;;5.31;100.00;100907.16;5009851;28;20048;-79
2023/01/14 04:47:55;;;;;;;32.17;13.30;;;;;;;5.54;100.00;100938.50;5010465;28;20087;-76
2023/01/14 04:50:41;;;;;;;26.48;11.80;;;;;;;5.50;100.00;100932.28;5008183;28;20030;-77
2023/01/14 04:53:14;;;;;;;33.92;12.48;;;;;;;5.53;100.00;100940.16;5011634;28;20075;-75
2023/01/14 04:55:41;;;;;;;39.30;14.35;;;;;;;5.55;100.00;100946.28;5018753;28;20072;-76
2023/01/14 04:58:08;;;;;;;29.67;13.23;;;;;;;5.54;100.00;100943.63;5015700;28;20104;-76
2023/01/14 05:00:34;;;;;;;19.80;12.65;;;;;;;5.41;100.00;100916.31;5012251;28;20034;-76
2023/01/14 05:03:05;;;;;;;21.67;11.30;;;;;;;5.51;100.00;100949.44;5011161;28;20073;-74
2023/01/14 05:05:31;;;;;;;20.88;11.50;;;;;;;5.44;100.00;100955.81;5012109;28;20052;-74
2023/01/14 05:07:57;;;;;;;21.83;10.98;;;;;;;5.40;100.00;100945.28;5012069;28;20034;-74
2023/01/14 05:10:22;;;;;;;20.63;11.75;;;;;;;5.40;100.00;100946.16;5009887;28;20582;-72
2023/01/14 05:12:57;;;;;;;18.80;10.52;;;;;;;5.33;100.00;100939.75;4993319;28;20065;-75
2023/01/14 05:15:38;;;;;;;25.83;11.65;;;;;;;5.43;100.00;100946.38;5009349;28;20664;-75
2023/01/14 05:18:04;;;;;;;20.00;10.18;;;;;;;5.45;100.00;100959.28;5004463;28;20025;-74
2023/01/14 05:20:30;;;;;;;23.48;10.95;;;;;;;5.40;100.00;100958.97;4992239;28;20057;-73
2023/01/14 05:23:03;;;;;;;21.80;12.13;;;;;;;5.41;100.00;100955.63;4991950;28;20030;-75
2023/01/14 05:25:31;;;;;;;19.67;11.57;;;;;;;5.40;100.00;100960.66;4994275;28;20044;-75
2023/01/14 05:28:03;;;;;;;20.38;11.23;;;;;;;5.46;100.00;100963.59;4991853;28;20581;-74
2023/01/14 05:30:29;;;;;;;26.20;11.80;;;;;;;5.45;100.00;100961.84;4992145;28;20121;-74
2023/01/14 05:32:55;;;;;;;28.20;12.80;;;;;;;5.42;100.00;100965.09;4992054;28;20101;-74
2023/01/14 05:35:20;;;;;;;21.42;10.95;;;;;;;5.27;100.00;100947.03;4992158;28;20026;-74
2023/01/14 05:37:46;;;;;;;25.88;11.43;;;;;;;4.94;100.00;100895.38;4992340;28;20545;-74
2023/01/14 05:40:11;;;;;;;21.95;11.55;;;;;;;5.43;100.00;100973.63;4991893;28;20076;-74
2023/01/14 05:48:05;;;;;;;20.95;10.68;;;;;;;5.47;100.00;100975.59;4991777;28;20072;-74
2023/01/14 05:50:32;;;;;;;24.33;12.23;;;;;;;5.46;100.00;100971.28;4991863;28;20483;-75
2023/01/14 05:52:57;;;;;;;24.42;12.45;;;;;;;5.46;100.00;100959.38;4991614;28;20030;-75
2023/01/14 05:55:22;;;;;;;31.25;12.05;;;;;;;5.58;100.00;100981.44;4991709;28;20567;-75
2023/01/14 05:57:48;;;;;;;21.17;11.07;;;;;;;5.33;100.00;100938.84;4991831;28;20396;-75
2023/01/14 06:08:43;;;;;;;21.67;11.90;;;;;;;5.75;100.00;100978.28;4989114;28;20057;-73
2023/01/14 06:11:09;;;;;;;17.60;10.48;;;;;;;5.69;100.00;100980.44;4989003;28;20569;-75
2023/01/14 06:13:34;;;;;;;18.27;10.00;;;;;;;5.59;100.00;100986.66;4988959;28;20042;-75
2023/01/14 06:16:02;;;;;;;19.33;10.80;;;;;;;5.43;100.00;100989.91;4989240;28;20038;-75
2023/01/14 06:18:37;;;;;;;22.70;10.57;;;;;;;5.22;100.00;100996.13;4989287;28;20063;-74
2023/01/14 06:21:03;;;;;;;16.15;9.95;;;;;;;5.06;100.00;100996.78;4988879;28;20104;-75
2023/01/14 06:23:29;;;;;;;23.15;11.07;;;;;;;4.98;100.00;100993.69;4988901;28;20050;-75
2023/01/14 06:25:55;;;;;;;15.45;10.07;;;;;;;4.87;100.00;100990.41;4988699;28;20174;-75
2023/01/14 06:28:20;;;;;;;17.35;11.73;;;;;;;4.59;100.00;100950.16;4988937;28;20092;-75
2023/01/14 06:30:46;;;;;;;18.10;11.50;;;;;;;4.88;100.00;100976.84;4988795;28;20136;-76
2023/01/14 06:33:11;;;;;;;14.02;9.68;;;;;;;5.05;100.00;100975.44;4989039;28;20104;-75
2023/01/14 06:35:44;;;;;;;14.35;9.48;;;;;;;4.68;100.00;100908.97;4988771;28;20038;-76
2023/01/14 06:38:13;;;;;;;14.88;9.55;;;;;;;5.16;100.00;100989.84;4989070;28;20042;-76
2023/01/14 06:40:40;;;;;;;17.75;10.23;;;;;;;4.74;100.00;100905.97;4956373;28;20125;-76
2023/01/14 06:43:06;;;;;;;14.00;9.57;;;;;;;4.78;100.00;100913.06;5002416;28;20454;-75
2023/01/14 06:45:32;;;;;;;13.27;8.98;;;;;;;5.38;100.00;100987.81;5010863;28;20492;-74
2023/01/14 06:47:57;;;;;;;13.25;8.95;;;;;;;5.31;100.00;100974.59;5010653;28;20105;-75
2023/01/14 06:50:22;;;;;;;14.00;9.93;;;;;;;5.30;100.00;100969.38;5010919;28;20030;-75
2023/01/14 06:52:52;;;;;;;20.50;14.48;;;;;;;5.40;100.00;100982.00;5010608;28;20059;-75
2023/01/14 06:55:21;;;;;;;;;;;;;;;5.42;100.00;100983.00;5011193;28;20030;-75
2023/01/14 06:57:46;;;;;;;17.35;10.10;;;;;;;5.35;100.00;100975.69;5010589;28;19913;-75
2023/01/14 07:00:13;;;;;;;13.50;9.15;;;;;;;5.34;100.00;100984.16;5010811;28;20037;-75
2023/01/14 07:02:39;;;;;;;20.95;14.02;;;;;;;5.35;100.00;100971.44;5009990;28;20499;-75
2023/01/14 07:05:05;;;;;;;14.00;10.35;;;;;;;4.97;100.00;100903.28;5010613;28;20030;-75
2023/01/14 07:07:30;;;;;;;15.45;10.55;;;;;;;5.41;100.00;100988.91;5010489;28;20491;-75
2023/01/14 07:09:56;;;;;;;14.55;10.15;;;;;;;5.44;100.00;100991.66;5010642;28;20028;-75
2023/01/14 07:12:22;;;;;;;17.45;10.90;;;;;;;5.15;100.00;100934.31;5010450;28;20101;-75
2023/01/14 07:14:47;;;;;;;18.00;14.13;;;;;;;5.08;100.00;100903.97;5010528;28;20036;-74
2023/01/14 07:17:13;;;;;;;24.20;19.05;;;;;;;5.63;100.00;100988.66;5012861;28;20030;-75
2023/01/14 07:19:38;;;;;;;22.73;17.73;;;;;;;5.69;100.00;100989.81;5014178;28;20132;-75
2023/01/14 07:22:03;;;;;;;22.02;13.98;;;;;;;5.70;100.00;100989.03;5014072;28;20022;-75
2023/01/14 07:24:29;;;;;;;21.35;14.85;;;;;;;5.33;100.00;100919.28;5014024;28;20022;-75
2023/01/14 07:26:54;;;;;;;30.83;22.48;;;;;;;5.56;100.00;100972.75;5014104;28;20054;-74
2023/01/14 07:29:19;;;;;;;17.95;12.20;;;;;;;5.72;100.00;100990.00;5013848;28;20100;-76
2023/01/14 07:31:45;;;;;;;16.95;12.35;;;;;;;5.77;100.00;100993.75;5014093;28;20033;-76
2023/01/14 07:34:10;;;;;;;27.98;20.50;;;;;;;5.77;100.00;100984.41;5028199;28;20427;-76
2023/01/14 07:36:36;;;;;;;16.00;9.25;;;;;;;5.56;100.00;100948.03;5014186;28;20083;-76
2023/01/14 07:39:01;;;;;;;18.08;9.63;;;;;;;5.71;100.00;100985.66;5002109;28;20030;-76
2023/01/14 07:41:26;;;;;;;19.65;11.45;;;;;;;5.64;100.00;100964.78;4993839;28;20026;-76
2023/01/14 07:43:53;;;;;;;18.27;11.68;;;;;;;5.83;100.00;100986.47;4994073;28;20133;-76
2023/01/14 07:46:19;;;;;;;18.67;11.48;;;;;;;5.85;100.00;100989.16;4994233;28;20069;-76
2023/01/14 07:48:44;;;;;;;22.88;14.20;;;;;;;5.77;100.00;100986.06;4993845;28;20058;-76
2023/01/14 07:51:12;;;;;;;19.90;12.45;;;;;;;5.89;100.00;100988.53;4993733;28;20408;-76
2023/01/14 07:53:38;;;;;;;19.02;11.73;;;;;;;5.92;100.00;100984.50;4993150;28;20420;-71
2023/01/14 07:56:05;;;;;;;26.85;12.10;;;;;;;5.97;100.00;100984.81;4994751;28;20041;-71
2023/01/14 07:58:31;;;;;;;29.95;12.48;;;;;;;5.92;100.00;100965.66;4993607;28;20061;-72
2023/01/14 08:00:57;;;;;;;32.10;12.25;;;;;;;5.99;100.00;100983.25;5000425;28;20161;-72
2023/01/14 08:03:24;;;;;;;26.60;12.57;;;;;;;6.05;100.00;100975.94;5012064;28;20491;-72
2023/01/14 08:05:50;;;;;;;43.72;16.75;;;;;;;6.06;100.00;100956.34;5013146;28;20026;-72
2023/01/14 08:08:16;;;;;;;20.38;11.43;;;;;;;6.17;100.00;100973.28;5002053;28;20044;-76
2023/01/14 08:10:42;;;;;;;13.23;8.48;;;;;;;6.21;100.00;100982.06;4998124;28;20026;-72
2023/01/14 08:13:14;;;;;;;13.68;8.90;;;;;;;6.23;100.00;100983.03;5013146;28;20084;-72
2023/01/14 08:15:40;;;;;;;20.80;10.57;;;;;;;6.24;100.00;100974.53;4999616;28;20452;-71
2023/01/14 08:18:06;;;;;;;27.15;13.40;;;;;;;6.28;100.00;100984.19;4992802;28;20030;-71
2023/01/14 08:20:31;;;;;;;28.58;14.68;;;;;;;6.36;100.00;100987.25;4996563;28;20038;-71
2023/01/14 08:22:58;;;;;;;27.33;14.05;;;;;;;6.41;100.00;100989.28;5000856;28;20034;-72
2023/01/14 08:25:24;;;;;;;18.27;10.60;;;;;;;6.43;100.00;100991.94;4993196;28;20030;-73
2023/01/14 08:27:50;;;;;;;16.48;10.32;;;;;;;6.04;100.00;100934.84;4995798;28;20081;-72
2023/01/14 08:30:15;;;;;;;24.55;16.95;;;;;;;6.24;100.00;100990.84;4992252;28;20065;-74
2023/01/14 08:32:41;;;;;;;61.80;38.25;;;;;;;5.82;100.00;100910.41;4992296;28;20026;-71
2023/01/14 08:35:06;;;;;;;19.98;15.75;;;;;;;6.11;100.00;100975.47;4993722;28;20036;-74
2023/01/14 08:37:32;;;;;;;17.67;11.25;;;;;;;5.99;100.00;100978.13;4992820;28;20060;-74
2023/01/14 08:39:57;;;;;;;20.63;15.73;;;;;;;5.65;100.00;100928.13;5017535;28;20088;-72
2023/01/14 08:42:23;;;;;;;16.23;10.90;;;;;;;5.54;100.00;100926.56;4996813;28;20495;-71
2023/01/14 08:44:48;;;;;;;15.60;10.20;;;;;;;5.97;100.00;100984.81;4996175;28;20456;-71
2023/01/14 08:47:14;;;;;;;17.00;9.48;;;;;;;6.03;100.00;100994.59;4994591;28;20034;-71
2023/01/14 08:49:40;;;;;;;13.85;8.60;;;;;;;5.92;100.00;100999.88;4996003;28;20526;-71
2023/01/14 08:52:06;;;;;;;13.88;9.77;;;;;;;5.85;100.00;100997.72;5003038;28;20038;-70
2023/01/14 08:54:32;;;;;;;15.93;9.27;;;;;;;5.82;100.00;100998.41;5011720;28;20042;-70
2023/01/14 08:56:57;;;;;;;15.15;10.15;;;;;;;5.87;100.00;100993.59;5011702;28;20048;-71
2023/01/14 08:59:23;;;;;;;16.90;11.05;;;;;;;5.87;100.00;100988.47;5011507;28;20041;-73
2023/01/14 09:01:49;;;;;;;17.70;11.13;;;;;;;5.55;100.00;100910.41;5009452;28;20045;-70
2023/01/14 09:04:14;;;;;;;17.77;10.93;;;;;;;5.93;100.00;100972.56;5011346;28;20033;-72
2023/01/14 09:17:40;;;;;;;43.55;24.80;;;;;;;6.26;100.00;100966.16;4991499;28;20467;-71
2023/01/14 09:20:17;;;;;;;43.08;23.02;;;;;;;6.42;100.00;100985.06;4991379;28;20066;-72
2023/01/14 09:22:44;;;;;;;33.55;24.60;;;;;;;6.40;100.00;100981.53;4991061;28;20506;-71
2023/01/14 09:25:10;;;;;;;25.00;16.80;;;;;;;6.43;100.00;100986.81;4989940;28;20055;-75
2023/01/14 09:27:36;;;;;;;30.40;20.38;;;;;;;6.45;100.00;100991.25;4992533;28;20046;-72
2023/01/14 09:30:01;;;;;;;20.27;13.88;;;;;;;6.12;100.00;100934.53;4991100;28;20041;-75
2023/01/14 09:32:27;;;;;;;20.92;13.10;;;;;;;5.99;100.00;100924.28;4989722;28;20018;-73
2023/01/14 09:34:52;;;;;;;23.23;15.40;;;;;;;6.36;100.00;100979.56;4993869;28;20080;-72
2023/01/14 09:37:24;;;;;;;19.33;12.60;;;;;;;6.43;100.00;100989.38;4991241;28;20392;-73
2023/01/14 09:39:50;;;;;;;14.55;9.27;;;;;;;6.34;100.00;100979.44;5007494;28;20038;-74
2023/01/14 09:42:36;;;;;;;43.97;27.88;;;;;;;6.29;100.00;100981.75;5007590;28;20112;-71
2023/01/14 09:45:18;;;;;;;18.75;12.00;;;;;;;6.28;100.00;100977.41;5008128;28;20038;-71
2023/01/14 09:47:45;;;;;;;15.40;13.10;;;;;;;6.35;100.00;100993.16;5008027;28;20045;-75
2023/01/14 09:50:24;;;;;;;25.48;21.38;;;;;;;6.34;100.00;100976.88;5007671;28;20080;-73
2023/01/14 09:53:01;;;;;;;17.65;13.80;;;;;;;6.41;100.00;100973.03;5007830;28;20034;-72
2023/01/14 09:56:11;;;;;;;68.50;53.17;;;;;;;6.36;100.00;100972.75;5007841;28;20034;-72
2023/01/14 09:58:42;;;;;;;17.73;13.57;;;;;;;6.31;100.00;100949.38;4968934;28;20035;-72
2023/01/14 10:01:30;;;;;;;10.98;7.57;;;;;;;6.42;100.00;100970.56;4968578;28;20047;-74
2023/01/14 10:04:01;;;;;;;11.02;7.10;;;;;;;6.38;100.00;100968.59;4968376;28;20070;-72
2023/01/14 10:06:28;;;;;;;12.15;7.88;;;;;;;6.40;100.00;100961.00;4968699;28;20511;-72
2023/01/14 10:09:02;;;;;;;13.60;7.55;;;;;;;6.40;100.00;100951.63;4952648;28;20067;-71
2023/01/14 10:11:32;;;;;;;8.18;5.35;;;;;;;5.33;100.00;100736.59;4953600;28;20110;-72
2023/01/14 10:14:26;;;;;;;8.43;5.60;;;;;;;6.41;100.00;100914.06;4917819;29;20047;-75
2023/01/14 10:16:58;;;;;;;11.52;6.43;;;;;;;6.44;100.00;100921.91;4949600;29;20055;-75
2023/01/14 10:19:39;;;;;;;12.05;9.10;;;;;;;6.66;100.00;100956.59;4949522;29;20031;-73
2023/01/14 10:22:19;;;;;;;8.10;5.50;;;;;;;6.55;100.00;100943.97;4949168;29;20043;-73
2023/01/14 10:24:45;;;;;;;13.00;8.60;;;;;;;6.61;100.00;100951.16;4949353;29;20462;-71
2023/01/14 10:27:19;;;;;;;13.68;8.73;;;;;;;6.66;100.00;100943.75;4948912;29;20051;-72
2023/01/14 10:29:49;;;;;;;12.30;8.15;;;;;;;6.56;100.00;100917.53;4961421;28;20054;-73
2023/01/14 10:32:15;;;;;;;;;;;;;;;6.71;100.00;100938.09;4988276;28;20034;-73
2023/01/14 10:34:45;;;;;;;15.57;8.05;;;;;;;6.64;100.00;100931.72;4987886;28;20317;-71
2023/01/14 10:37:11;;;;;;;10.15;6.25;;;;;;;6.61;100.00;100920.38;4988164;28;20035;-72
2023/01/14 10:39:48;;;;;;;9.45;6.18;;;;;;;6.69;100.00;100933.66;5005694;28;20034;-72
2023/01/14 10:42:24;;;;;;;10.70;7.10;;;;;;;6.66;100.00;100929.25;5007750;28;20403;-71
2023/01/14 10:44:49;;;;;;;8.02;5.32;;;;;;;5.73;100.00;100781.72;5003339;28;20033;-73
2023/01/14 10:47:17;;;;;;;9.00;5.60;;;;;;;6.62;100.00;100925.59;4987581;28;20042;-72
2023/01/14 10:49:54;;;;;;;9.43;6.28;;;;;;;6.62;100.00;100922.16;4987741;28;20515;-72
2023/01/14 10:52:21;;;;;;;8.15;5.13;;;;;;;6.62;100.00;100928.16;4990117;28;20125;-72
2023/01/14 10:54:59;;;;;;;18.33;10.52;;;;;;;6.65;100.00;100927.47;4993976;28;20045;-71
2023/01/14 10:57:26;;;;;;;14.93;8.07;;;;;;;6.64;100.00;100923.13;4998323;28;20022;-72
2023/01/14 10:59:53;;;;;;;9.70;6.15;;;;;;;6.62;100.00;100907.63;5013445;28;20040;-71
2023/01/14 11:02:39;;;;;;;13.95;7.80;;;;;;;6.72;100.00;100916.78;4994258;28;20034;-72
2023/01/14 11:05:31;;;;;;;12.77;8.52;;;;;;;6.70;100.00;100913.22;4994184;28;20048;-73
2023/01/14 11:07:59;;;;;;;13.88;9.15;;;;;;;6.06;100.00;100823.94;5023082;28;20052;-72
2023/01/14 11:10:28;;;;;;;17.23;11.45;;;;;;;6.56;100.00;100909.84;5020332;28;20042;-72
2023/01/14 11:13:13;;;;;;;16.67;12.43;;;;;;;6.58;100.00;100912.47;5013145;28;20125;-72
2023/01/14 11:15:41;;;;;;;19.02;13.48;;;;;;;6.35;100.00;100883.78;5010937;28;20066;-72
2023/01/14 11:18:15;;;;;;;17.63;14.02;;;;;;;6.47;100.00;100907.59;5010432;28;20084;-72
2023/01/14 11:20:41;;;;;;;19.92;13.35;;;;;;;6.05;100.00;100840.09;5019102;28;20034;-72
2023/01/14 11:23:25;;;;;;;19.17;14.48;;;;;;;6.27;100.00;100890.13;5010518;28;20813;-71
2023/01/14 11:25:50;;;;;;;17.80;13.43;;;;;;;6.26;100.00;100891.78;5010396;28;20073;-71
2023/01/14 11:28:16;;;;;;;18.20;13.50;;;;;;;5.92;100.00;100835.88;4997456;28;20092;-72
2023/01/14 11:30:48;;;;;;;18.83;12.55;;;;;;;6.28;100.00;100887.66;5013909;28;20037;-73
2023/01/14 11:33:25;;;;;;;19.13;11.75;;;;;;;6.31;100.00;100894.66;5030861;28;20045;-73
2023/01/14 11:36:02;;;;;;;16.02;10.55;;;;;;;6.35;100.00;100900.84;5030744;28;20454;-73
2023/01/14 11:38:28;;;;;;;12.20;9.20;;;;;;;6.29;100.00;100891.09;5030711;28;20050;-73
2023/01/14 11:43:58;;;;;;;12.07;8.43;;;;;;;6.32;100.00;100892.16;5030519;28;20040;-74
2023/01/14 11:46:23;;;;;;;12.30;7.10;;;;;;;6.14;100.00;100848.38;5011962;28;20057;-73
2023/01/14 11:49:19;;;;;;;13.10;6.57;;;;;;;6.31;100.00;100874.13;5012207;28;20139;-72
2023/01/14 11:52:03;;;;;;;10.40;6.53;;;;;;;6.46;100.00;100889.56;4993959;28;20030;-72
2023/01/14 11:54:35;;;;;;;10.32;7.38;;;;;;;6.25;100.00;100856.69;4993759;28;20030;-71
2023/01/14 11:57:02;;;;;;;10.90;7.10;;;;;;;6.42;100.00;100896.19;4993660;28;20026;-73
2023/01/14 11:59:38;;;;;;;11.27;7.80;;;;;;;6.29;100.00;100876.63;4993536;28;20033;-71
2023/01/14 12:02:14;;;;;;;11.63;8.25;;;;;;;6.46;100.00;100892.13;5024243;28;20046;-72